Coleman A. Young Municipal Airport Detroit US
ICAO: KDET
IATA: DET
Category: Medium
Scheduled Services: No

Elevation: 626 ft
TransAlt. 18000 ft.

Airport Communications:
APP/DEP:126.85
ATIS:124.875
GND:121.85
LANSING RDO:122.2
TWR:121.3
UNICOM:122.95

KDET Zoom In..

If you have problems with the map follow the link
https://www.worldairports.se/pages/airport.php?
ICAO=KDET

Runways:

(A) RW 07 length 3714 ft width 100 ft
---- / hdg 68

(B) RW 15 length 5090 ft width 100 ft
ILS 111.30 / hdg 148

(C) RW 25 length 3714 ft width 100 ft
---- / hdg 248

(D) RW 33 length 5090 ft width 100 ft
ILS 111.30 / hdg 328

Location; KDET
Day. 23 / Time. 18.53 Zulu
* Altimeter: 30.16
* Temperature: 11° c. 51.8°f.
* Wind from: 340° Speed 09 kn with Gusts up to 17 kn.
Dewpoint: 00° c.
Visibility: 10 Statute Miles.
Clouds: Few 4700 ft.
Clouds: Broken 6000 ft.

KDET 231853Z 34009G17KT 10SM FEW047 BKN060 11/00 A3016 RMK AO2 SLP214 T01060000


Wind From 340°
Speed 09 kn.

 
 
jpsmedia.com for Web Design worldairports.se 2018   terms of use